Time;durP1;ratioP1;P1;durP2;ratioP2;P2;SDS_P1;SDS_P2;PMS_P1;PMS_P2;Temp;Humidity;BMP_temperature;BMP_pressure;BME280_temperature;BME280_humidity;BME280_pressure;Samples;Min_cycle;Max_cycle;Signal;HPM_P1;HPM_P2
2024/01/12 00:00:19;;;;;;;19.17;14.80;;;;;;;-1.73;52.06;94922.56;5052678;28;20214;-75
2024/01/12 00:02:44;;;;;;;20.60;15.43;;;;;;;-1.87;52.22;94910.41;5049962;28;20297;-75
2024/01/12 00:05:10;;;;;;;18.43;14.47;;;;;;;-1.80;52.00;94898.84;5054006;28;20216;-74
2024/01/12 00:07:35;;;;;;;18.17;15.13;;;;;;;-1.90;52.02;94901.97;5054001;28;20182;-74
2024/01/12 00:10:01;;;;;;;16.67;13.27;;;;;;;-1.69;51.79;94911.16;5050336;28;20247;-76
2024/01/12 00:12:26;;;;;;;17.20;13.60;;;;;;;-1.80;51.61;94916.06;5048615;28;20228;-76
2024/01/12 00:14:52;;;;;;;18.50;14.23;;;;;;;-1.75;51.42;94918.41;5050948;28;20221;-74
2024/01/12 00:17:18;;;;;;;16.93;13.93;;;;;;;-1.86;51.38;94917.22;5051612;28;20200;-74
2024/01/12 00:19:45;;;;;;;20.47;14.63;;;;;;;-1.89;51.34;94916.53;5052735;28;20177;-75
2024/01/12 00:22:11;;;;;;;16.83;14.33;;;;;;;-1.77;51.58;94924.44;5050557;28;20284;-75
2024/01/12 00:24:36;;;;;;;18.67;13.10;;;;;;;-1.84;51.23;94915.38;5048983;28;20355;-74
2024/01/12 00:27:02;;;;;;;18.40;13.93;;;;;;;-1.98;51.62;94917.00;5067593;28;20216;-75
2024/01/12 00:29:27;;;;;;;19.37;14.47;;;;;;;-1.93;51.37;94915.84;5049774;28;20178;-76
2024/01/12 00:31:53;;;;;;;16.40;13.47;;;;;;;-1.80;51.42;94931.50;5042265;28;20189;-75
2024/01/12 00:34:18;;;;;;;18.90;12.80;;;;;;;-1.72;50.90;94924.22;5051650;28;20226;-76
2024/01/12 00:36:44;;;;;;;17.17;13.23;;;;;;;-1.71;50.39;94927.63;5068135;28;20214;-76
2024/01/12 00:39:09;;;;;;;17.77;13.60;;;;;;;-2.02;51.23;94918.91;5047275;28;20236;-78
2024/01/12 00:41:35;;;;;;;16.03;12.43;;;;;;;-1.96;50.95;94918.59;5070651;28;20248;-78
2024/01/12 00:44:01;;;;;;;17.03;13.10;;;;;;;-1.97;50.24;94916.94;5051131;28;20278;-78
2024/01/12 00:46:27;;;;;;;16.07;11.40;;;;;;;-1.84;49.66;94919.72;5069747;28;20217;-76
2024/01/12 00:48:52;;;;;;;16.83;12.30;;;;;;;-1.61;49.31;94906.44;5053243;28;20232;-77
2024/01/12 00:51:17;;;;;;;15.97;11.07;;;;;;;-1.75;49.70;94923.56;5052587;28;20236;-76
2024/01/12 00:53:43;;;;;;;14.73;11.43;;;;;;;-1.79;48.72;94918.56;5046390;28;20275;-78
2024/01/12 00:56:08;;;;;;;12.50;9.80;;;;;;;-1.80;47.97;94916.06;5053481;28;20201;-77
2024/01/12 00:58:34;;;;;;;13.43;9.47;;;;;;;-1.67;47.27;94900.78;5052006;28;20271;-76
2024/01/12 01:00:59;;;;;;;12.83;9.90;;;;;;;-1.78;46.53;94894.44;5051721;28;20229;-75
2024/01/12 01:03:25;;;;;;;13.37;9.43;;;;;;;-1.69;46.60;94913.75;5050813;28;20217;-76
2024/01/12 01:05:51;;;;;;;15.93;9.73;;;;;;;-1.72;46.62;94902.75;5048772;28;20270;-76
2024/01/12 01:08:16;;;;;;;11.27;8.60;;;;;;;-1.61;45.81;94915.91;5041768;28;20178;-76
2024/01/12 01:10:43;;;;;;;9.90;7.67;;;;;;;-1.69;45.12;94902.59;5049119;28;20181;-75
2024/01/12 01:13:09;;;;;;;9.87;8.70;;;;;;;-1.74;44.82;94902.00;5052602;28;20225;-76
2024/01/12 01:15:35;;;;;;;8.97;8.00;;;;;;;-1.73;45.19;94901.94;5054496;28;20221;-74
2024/01/12 01:18:00;;;;;;;10.63;8.97;;;;;;;-1.64;45.27;94900.63;5052766;28;20225;-74
2024/01/12 01:20:25;;;;;;;11.63;9.27;;;;;;;-1.59;45.21;94904.59;5050765;28;20212;-76
2024/01/12 01:22:51;;;;;;;10.73;8.87;;;;;;;-1.60;45.37;94896.97;5056301;28;20174;-77
2024/01/12 01:25:18;;;;;;;9.80;7.87;;;;;;;-1.70;45.02;94891.47;5055656;28;20219;-77
2024/01/12 01:27:44;;;;;;;11.00;8.30;;;;;;;-1.70;44.98;94886.31;5031825;28;20231;-77
2024/01/12 01:30:10;;;;;;;9.50;8.07;;;;;;;-1.67;44.23;94880.97;5049948;28;20248;-77
2024/01/12 01:32:36;;;;;;;10.27;8.43;;;;;;;-1.65;44.51;94884.31;5054518;28;20217;-78
2024/01/12 01:35:02;;;;;;;11.10;8.40;;;;;;;-1.89;44.44;94865.81;5054106;28;20212;-78
2024/01/12 01:37:27;;;;;;;9.93;7.77;;;;;;;-1.83;44.46;94862.09;5054594;28;20304;-76
2024/01/12 01:39:53;;;;;;;10.33;8.03;;;;;;;-1.79;44.07;94856.69;5054513;28;20285;-77
2024/01/12 01:42:18;;;;;;;9.13;6.90;;;;;;;-1.66;43.91;94856.03;5054487;28;20228;-77
2024/01/12 01:44:44;;;;;;;10.30;7.60;;;;;;;-1.79;44.19;94854.13;5054724;28;20292;-76
2024/01/12 01:47:10;;;;;;;10.07;8.00;;;;;;;-1.73;44.65;94857.28;5054117;28;20188;-76
2024/01/12 01:49:36;;;;;;;11.20;8.23;;;;;;;-1.78;44.38;94848.03;5055617;28;20209;-76
2024/01/12 01:52:03;;;;;;;12.53;9.00;;;;;;;-1.88;45.66;94844.28;5054001;28;20225;-77
2024/01/12 01:54:29;;;;;;;12.83;9.53;;;;;;;-1.79;45.82;94851.53;5055145;28;20248;-77
2024/01/12 01:56:55;;;;;;;11.50;8.83;;;;;;;-1.84;46.08;94848.38;5053029;28;20226;-77
2024/01/12 01:59:21;;;;;;;13.10;9.30;;;;;;;-1.84;46.56;94837.25;5055002;28;20208;-78
2024/01/12 02:01:47;;;;;;;12.40;8.97;;;;;;;-2.00;46.93;94848.34;5054022;28;20194;-77
2024/01/12 02:04:13;;;;;;;14.67;10.77;;;;;;;-2.08;47.43;94840.19;5054751;28;20216;-75
2024/01/12 02:06:39;;;;;;;14.50;11.20;;;;;;;-2.12;47.23;94846.41;5055373;28;20221;-77
2024/01/12 02:09:05;;;;;;;12.90;10.20;;;;;;;-2.12;47.20;94837.84;5053501;28;20217;-76
2024/01/12 02:11:31;;;;;;;12.27;9.70;;;;;;;-2.11;46.75;94830.06;5051922;28;20222;-75
2024/01/12 02:13:56;;;;;;;14.03;10.63;;;;;;;-2.02;46.42;94841.63;5069879;28;20193;-77
2024/01/12 02:16:22;;;;;;;12.80;10.30;;;;;;;-2.16;46.16;94836.38;5053845;28;20254;-77
2024/01/12 02:18:47;;;;;;;12.67;9.53;;;;;;;-2.04;45.79;94841.69;5054421;28;20304;-76
2024/01/12 02:21:13;;;;;;;10.70;9.43;;;;;;;-1.95;45.48;94853.28;5052222;28;20225;-76
2024/01/12 02:23:38;;;;;;;11.77;9.50;;;;;;;-2.06;45.83;94848.69;5052992;28;20217;-76
2024/01/12 02:26:04;;;;;;;10.53;9.00;;;;;;;-2.09;45.54;94837.69;5053527;28;20185;-76
2024/01/12 02:28:31;;;;;;;11.47;8.50;;;;;;;-2.11;45.52;94844.66;5053243;28;20221;-76
2024/01/12 02:30:56;;;;;;;13.37;9.73;;;;;;;-2.04;45.40;94835.69;5054359;28;20303;-76
2024/01/12 02:33:22;;;;;;;11.57;8.97;;;;;;;-2.00;45.06;94837.22;5054358;28;20225;-76
2024/01/12 02:35:47;;;;;;;10.90;8.57;;;;;;;-1.97;45.13;94837.06;5053546;28;20275;-76
2024/01/12 02:38:13;;;;;;;11.50;8.77;;;;;;;-1.87;45.20;94838.22;5052434;28;20206;-77
2024/01/12 02:40:38;;;;;;;11.47;9.53;;;;;;;-1.86;45.13;94836.50;5053513;28;20200;-76
2024/01/12 02:43:04;;;;;;;11.53;8.97;;;;;;;-1.78;44.89;94829.16;5052445;28;20313;-76
2024/01/12 02:45:29;;;;;;;12.13;9.43;;;;;;;-1.94;45.73;94842.03;5051014;28;20772;-76
2024/01/12 02:47:54;;;;;;;12.63;9.87;;;;;;;-1.90;45.48;94842.69;5047869;28;20232;-76
2024/01/12 02:50:20;;;;;;;12.50;9.60;;;;;;;-2.03;45.68;94839.97;5053520;28;20189;-76
2024/01/12 02:52:45;;;;;;;13.13;10.27;;;;;;;-1.95;45.98;94844.69;5054334;28;20183;-74
2024/01/12 02:55:11;;;;;;;14.13;10.43;;;;;;;-1.87;45.73;94848.53;5053486;28;20232;-74
2024/01/12 02:57:36;;;;;;;12.90;10.47;;;;;;;-1.98;46.21;94861.13;5050726;28;20218;-74
2024/01/12 03:00:02;;;;;;;14.77;10.53;;;;;;;-2.08;46.59;94854.81;5052476;28;20221;-74
2024/01/12 03:02:27;;;;;;;15.03;10.87;;;;;;;-2.03;47.20;94865.72;5036895;28;20186;-74
2024/01/12 03:04:53;;;;;;;12.57;9.43;;;;;;;-1.91;46.56;94852.19;5051230;28;20198;-74
2024/01/12 03:07:18;;;;;;;14.40;10.20;;;;;;;-2.04;46.66;94856.31;5069833;28;20213;-75
2024/01/12 03:09:44;;;;;;;13.70;10.33;;;;;;;-2.02;46.79;94854.50;5053333;28;20358;-76
2024/01/12 03:12:09;;;;;;;15.00;11.70;;;;;;;-2.07;47.16;94853.91;5054295;28;20309;-76
2024/01/12 03:14:35;;;;;;;13.90;11.63;;;;;;;-2.15;47.08;94853.47;5050747;28;20230;-76
2024/01/12 03:17:00;;;;;;;14.67;11.50;;;;;;;-2.16;46.96;94844.09;5053125;28;20190;-76
2024/01/12 03:19:26;;;;;;;13.47;11.10;;;;;;;-2.28;47.61;94841.22;5050717;28;20225;-76
2024/01/12 03:21:51;;;;;;;14.97;11.33;;;;;;;-2.15;47.40;94845.75;5053441;28;20303;-76
2024/01/12 03:24:17;;;;;;;13.10;10.47;;;;;;;-2.08;47.10;94845.34;5052281;28;20271;-75
2024/01/12 03:26:42;;;;;;;14.93;12.03;;;;;;;-2.12;48.02;94841.25;5053293;28;20217;-75
2024/01/12 03:29:08;;;;;;;16.03;11.20;;;;;;;-2.17;47.84;94843.22;5050738;28;20189;-75
2024/01/12 03:31:34;;;;;;;15.00;11.53;;;;;;;-2.10;47.39;94846.34;5053292;28;20216;-76
2024/01/12 03:33:59;;;;;;;14.70;11.43;;;;;;;-2.27;48.13;94855.78;5052983;28;20249;-76
2024/01/12 03:36:26;;;;;;;14.43;10.60;;;;;;;-2.13;48.08;94856.81;5038723;28;20241;-76
2024/01/12 03:38:54;;;;;;;15.27;12.03;;;;;;;-2.19;47.58;94852.81;5047972;28;20228;-75
2024/01/12 03:41:20;;;;;;;14.47;11.03;;;;;;;-2.20;47.46;94856.28;5052678;28;20188;-75
2024/01/12 03:43:45;;;;;;;15.07;11.37;;;;;;;-2.23;47.69;94836.66;5053665;28;20185;-77
2024/01/12 03:46:11;;;;;;;15.13;11.17;;;;;;;-2.22;47.67;94825.47;5052716;28;20224;-77
2024/01/12 03:48:36;;;;;;;12.60;10.27;;;;;;;-2.17;46.82;94825.19;5051953;28;20224;-76
2024/01/12 03:51:02;;;;;;;11.77;9.80;;;;;;;-2.29;47.06;94824.09;5052871;28;20299;-75
2024/01/12 03:53:27;;;;;;;11.37;10.10;;;;;;;-2.24;46.91;94822.13;5035627;28;20276;-76
2024/01/12 03:55:52;;;;;;;12.83;9.60;;;;;;;-2.10;46.57;94828.31;5055851;28;20201;-76
2024/01/12 03:58:18;;;;;;;13.53;9.87;;;;;;;-2.21;46.36;94828.88;5051620;28;20244;-76
2024/01/12 04:00:43;;;;;;;12.17;10.03;;;;;;;-2.35;45.96;94842.47;5050232;28;20209;-76
2024/01/12 04:03:09;;;;;;;12.43;8.93;;;;;;;-2.23;46.25;94830.69;5048769;28;20260;-76
2024/01/12 04:05:35;;;;;;;13.07;9.17;;;;;;;-2.16;46.09;94820.91;5047631;28;20271;-76
2024/01/12 04:08:00;;;;;;;13.77;10.63;;;;;;;-2.24;46.20;94814.41;5053145;28;20169;-76
2024/01/12 04:10:25;;;;;;;14.93;10.00;;;;;;;-2.04;46.56;94822.81;5047963;28;20213;-78
2024/01/12 04:12:51;;;;;;;13.47;9.07;;;;;;;-2.00;46.18;94832.06;5049456;28;20225;-78
2024/01/12 04:15:16;;;;;;;11.37;8.83;;;;;;;-1.94;45.92;94825.75;5051463;28;20266;-77
2024/01/12 04:17:42;;;;;;;12.53;8.30;;;;;;;-1.83;45.70;94826.84;5051682;28;20270;-78
2024/01/12 04:20:09;;;;;;;13.47;9.03;;;;;;;-1.94;45.85;94826.59;5052385;28;20190;-77
2024/01/12 04:22:34;;;;;;;11.10;8.63;;;;;;;-1.83;46.14;94826.84;5068206;28;20229;-76
2024/01/12 04:25:00;;;;;;;12.80;9.43;;;;;;;-1.96;46.51;94825.00;5050904;28;20290;-77
2024/01/12 04:27:26;;;;;;;13.47;9.10;;;;;;;-2.03;46.63;94830.47;5064619;28;20218;-78
2024/01/12 04:29:52;;;;;;;15.60;9.90;;;;;;;-1.87;46.31;94834.81;5050824;28;20232;-78
2024/01/12 04:32:18;;;;;;;12.10;9.03;;;;;;;-1.97;46.41;94831.06;5052346;28;20185;-78
2024/01/12 04:34:43;;;;;;;13.70;10.70;;;;;;;-2.02;46.71;94831.31;5050887;28;20189;-77
2024/01/12 04:37:08;;;;;;;12.80;8.97;;;;;;;-2.00;46.23;94827.75;5044703;28;20218;-78
2024/01/12 04:39:34;;;;;;;14.07;9.10;;;;;;;-1.86;46.49;94839.88;5049078;28;20214;-76
2024/01/12 04:41:59;;;;;;;13.47;9.03;;;;;;;-1.91;46.62;94831.56;5049478;28;20219;-78
2024/01/12 04:44:25;;;;;;;12.73;9.30;;;;;;;-1.82;46.54;94825.94;5053609;28;20269;-77
2024/01/12 04:46:51;;;;;;;11.93;8.97;;;;;;;-1.84;46.28;94830.34;5053875;28;20353;-78
2024/01/12 04:49:16;;;;;;;13.27;8.60;;;;;;;-2.00;46.51;94824.34;5051569;28;20301;-77
2024/01/12 04:51:42;;;;;;;16.53;11.67;;;;;;;-1.83;46.42;94838.91;5049639;28;20469;-75
2024/01/12 04:54:07;;;;;;;14.93;11.03;;;;;;;-1.89;46.22;94834.06;5048305;28;20227;-75
2024/01/12 04:56:32;;;;;;;12.77;10.00;;;;;;;-1.90;46.47;94832.38;5050411;28;20279;-77
2024/01/12 04:58:59;;;;;;;13.70;10.27;;;;;;;-1.94;46.46;94831.72;5050840;28;20225;-80
2024/01/12 05:01:25;;;;;;;12.50;9.80;;;;;;;-1.90;46.32;94838.38;5052202;28;20256;-77
2024/01/12 05:03:51;;;;;;;15.47;10.37;;;;;;;-2.00;46.91;94838.03;5049169;28;20225;-76
2024/01/12 05:06:16;;;;;;;13.50;9.47;;;;;;;-2.05;47.00;94839.19;5052483;28;20239;-76
2024/01/12 05:08:42;;;;;;;15.03;11.10;;;;;;;-1.95;46.93;94849.84;5049557;28;20229;-76
2024/01/12 05:11:07;;;;;;;17.10;11.13;;;;;;;-2.13;47.32;94849.91;5052327;28;20196;-77
2024/01/12 05:13:33;;;;;;;14.67;10.80;;;;;;;-2.04;47.66;94848.59;5047101;28;20259;-80
2024/01/12 05:15:58;;;;;;;15.77;12.20;;;;;;;-2.06;48.03;94861.56;5046760;28;20221;-78
2024/01/12 05:18:23;;;;;;;13.93;11.33;;;;;;;-2.08;47.93;94860.81;5053529;28;20229;-81
2024/01/12 05:20:49;;;;;;;15.03;11.47;;;;;;;-2.20;48.33;94870.91;5056941;28;20217;-82
2024/01/12 05:23:14;;;;;;;18.63;13.27;;;;;;;-2.14;48.36;94862.84;5050278;28;20185;-81
2024/01/12 05:25:40;;;;;;;17.00;12.43;;;;;;;-2.32;48.48;94857.75;5053754;28;20220;-76
2024/01/12 05:28:05;;;;;;;15.77;11.73;;;;;;;-2.22;48.45;94864.09;5048465;28;20225;-79
2024/01/12 05:30:31;;;;;;;16.47;11.77;;;;;;;-2.29;48.58;94867.06;5049984;28;20220;-79
2024/01/12 05:32:56;;;;;;;16.07;12.53;;;;;;;-2.24;48.37;94875.38;5068827;28;20231;-79
2024/01/12 05:35:22;;;;;;;16.40;11.63;;;;;;;-2.31;48.54;94881.75;5050262;28;20197;-80
2024/01/12 05:37:48;;;;;;;17.13;12.47;;;;;;;-2.26;48.41;94882.34;5054189;28;20202;-75
2024/01/12 05:40:13;;;;;;;17.67;11.83;;;;;;;-2.31;48.55;94869.69;5049823;28;20229;-81
2024/01/12 05:42:39;;;;;;;16.33;12.33;;;;;;;-2.29;48.40;94862.75;5064481;28;20376;-73
2024/01/12 05:45:05;;;;;;;14.30;11.40;;;;;;;-2.30;48.68;94875.69;5037295;28;20279;-75
2024/01/12 05:47:30;;;;;;;17.67;11.97;;;;;;;-2.30;49.20;94880.81;5049651;28;20675;-74
2024/01/12 05:49:55;;;;;;;16.33;12.37;;;;;;;-2.23;49.17;94877.03;5050437;28;20208;-75
2024/01/12 05:52:21;;;;;;;17.23;12.87;;;;;;;-2.31;49.25;94880.00;5049681;28;20247;-75
2024/01/12 05:54:46;;;;;;;20.40;13.40;;;;;;;-2.31;49.59;94872.28;5049266;28;20232;-75
2024/01/12 05:57:12;;;;;;;21.50;14.73;;;;;;;-2.37;49.83;94870.03;5044497;28;20230;-73
2024/01/12 05:59:37;;;;;;;19.27;14.10;;;;;;;-2.26;49.33;94887.50;5046849;28;20218;-74
2024/01/12 06:02:03;;;;;;;19.50;14.80;;;;;;;-2.44;49.63;94879.78;5053389;28;20215;-74
2024/01/12 06:04:29;;;;;;;20.20;15.10;;;;;;;-2.45;49.52;94897.91;5054586;28;20218;-74
2024/01/12 06:06:54;;;;;;;20.57;14.73;;;;;;;-2.31;49.29;94904.94;5053203;28;20220;-74
2024/01/12 06:09:20;;;;;;;21.07;13.57;;;;;;;-2.32;49.04;94891.22;5051763;28;20482;-75
2024/01/12 06:11:45;;;;;;;16.93;12.63;;;;;;;-2.32;48.64;94882.66;5054459;28;20220;-74
2024/01/12 06:14:16;;;;;;;16.10;12.60;;;;;;;-2.39;48.89;94883.88;5051872;28;20205;-76
2024/01/12 06:16:42;;;;;;;17.63;12.93;;;;;;;-2.39;48.88;94892.44;5054806;28;20174;-75
2024/01/12 06:19:07;;;;;;;19.43;14.50;;;;;;;-2.41;48.72;94883.13;5052307;28;20226;-74
2024/01/12 06:21:32;;;;;;;18.70;13.93;;;;;;;-2.38;48.72;94888.94;5050709;28;20213;-75
2024/01/12 06:23:58;;;;;;;20.80;13.60;;;;;;;-2.31;48.14;94905.75;5053349;28;20267;-76
2024/01/12 06:26:23;;;;;;;19.33;13.63;;;;;;;-2.44;48.53;94892.66;5051442;28;20206;-72
2024/01/12 06:28:49;;;;;;;19.47;13.80;;;;;;;-2.59;48.95;94893.44;5051129;28;20178;-71
2024/01/12 06:31:14;;;;;;;19.13;13.23;;;;;;;-2.41;48.38;94909.69;5052910;28;20267;-69
2024/01/12 06:33:40;;;;;;;19.37;13.17;;;;;;;-2.48;48.42;94906.59;5052869;28;20220;-70
2024/01/12 06:36:05;;;;;;;20.50;12.90;;;;;;;-2.47;48.15;94895.38;5050903;28;20229;-70
2024/01/12 06:38:32;;;;;;;20.43;13.47;;;;;;;-2.41;47.90;94903.72;5051932;28;20225;-70
2024/01/12 06:40:57;;;;;;;19.97;13.57;;;;;;;-2.50;48.05;94905.84;5050054;28;20202;-71
2024/01/12 06:43:23;;;;;;;15.37;11.67;;;;;;;-2.64;47.44;94895.41;5051935;28;20317;-71
2024/01/12 06:45:48;;;;;;;14.17;9.53;;;;;;;-2.66;46.70;94916.06;5050496;28;20248;-70
2024/01/12 06:48:13;;;;;;;15.10;9.87;;;;;;;-2.63;46.17;94917.66;5052764;28;20217;-70
2024/01/12 06:50:39;;;;;;;13.93;9.17;;;;;;;-2.64;46.04;94910.84;5052243;28;20227;-71
2024/01/12 06:53:08;;;;;;;13.17;8.83;;;;;;;-2.61;45.86;94918.41;5051300;28;20196;-70
2024/01/12 06:55:37;;;;;;;13.23;8.80;;;;;;;-2.39;45.98;94910.47;5052688;28;20651;-70
2024/01/12 06:58:03;;;;;;;14.07;9.57;;;;;;;-2.34;46.07;94905.09;5052314;28;20218;-73
2024/01/12 07:00:29;;;;;;;14.03;8.63;;;;;;;-2.25;45.36;94913.16;5052783;28;20220;-71
2024/01/12 07:02:54;;;;;;;14.37;9.80;;;;;;;-2.30;45.71;94904.00;5068316;28;20217;-71
2024/01/12 07:05:20;;;;;;;15.90;9.27;;;;;;;-2.10;45.56;94895.28;5050910;28;20185;-71
2024/01/12 07:07:45;;;;;;;13.13;9.50;;;;;;;-1.95;44.83;94909.97;5052501;28;20201;-69
2024/01/12 07:10:13;;;;;;;11.23;7.87;;;;;;;-2.18;45.16;94911.13;5048673;28;20217;-71
2024/01/12 07:12:39;;;;;;;14.50;9.37;;;;;;;-2.29;45.62;94932.28;5051947;28;20300;-68
2024/01/12 07:15:08;;;;;;;13.43;8.50;;;;;;;-2.09;45.24;94918.38;5051269;28;20292;-70
2024/01/12 07:17:34;;;;;;;13.70;9.10;;;;;;;-2.06;45.36;94925.13;5050321;28;20236;-70
2024/01/12 07:19:59;;;;;;;14.97;9.07;;;;;;;-2.03;45.60;94919.84;5052777;28;20185;-75
2024/01/12 07:22:25;;;;;;;17.60;9.37;;;;;;;-2.00;45.54;94928.22;5051294;28;20250;-74
2024/01/12 07:24:50;;;;;;;13.70;9.37;;;;;;;-1.86;45.37;94926.69;5069078;28;20231;-76
2024/01/12 07:27:16;;;;;;;15.47;10.17;;;;;;;-2.15;45.48;94946.22;5052274;28;20224;-75
2024/01/12 07:29:42;;;;;;;14.37;9.53;;;;;;;-2.05;45.74;94950.00;5047962;28;20229;-74
2024/01/12 07:32:07;;;;;;;15.13;9.93;;;;;;;-1.71;46.42;94953.41;5049975;28;20269;-73
2024/01/12 07:34:32;;;;;;;16.73;10.63;;;;;;;-1.90;46.13;94951.75;5052171;28;20329;-72
2024/01/12 07:36:58;;;;;;;16.20;10.23;;;;;;;-1.89;45.69;94952.63;5052289;28;20319;-73
2024/01/12 07:39:24;;;;;;;16.47;10.93;;;;;;;-1.89;45.44;94960.34;5047340;28;20252;-73
2024/01/12 07:41:50;;;;;;;16.60;10.83;;;;;;;-1.95;46.44;94979.53;5052740;28;20217;-72
2024/01/12 07:44:15;;;;;;;15.83;10.67;;;;;;;-2.11;46.58;94978.63;5051313;28;20189;-75
2024/01/12 07:46:42;;;;;;;17.83;10.07;;;;;;;-1.82;45.65;94982.31;5049827;28;20197;-71
2024/01/12 07:49:07;;;;;;;18.50;10.53;;;;;;;-1.77;46.10;94986.31;5046595;28;20232;-72
2024/01/12 07:51:33;;;;;;;14.57;9.93;;;;;;;-1.73;46.60;94988.75;5051749;28;20218;-72
2024/01/12 07:53:58;;;;;;;16.87;9.93;;;;;;;-1.57;45.98;94994.78;5048417;28;20217;-73
2024/01/12 07:56:24;;;;;;;17.77;10.77;;;;;;;-1.67;46.36;95004.72;5051473;28;20241;-77
2024/01/12 07:58:49;;;;;;;17.90;10.60;;;;;;;-1.67;46.67;95011.63;5053015;28;20212;-71
2024/01/12 08:01:18;;;;;;;17.53;10.33;;;;;;;-1.31;46.23;95019.22;5051292;28;20213;-72
2024/01/12 08:03:44;;;;;;;16.83;9.80;;;;;;;-1.29;45.98;94996.75;5051700;28;20221;-72
2024/01/12 08:06:10;;;;;;;17.80;11.83;;;;;;;-1.58;46.43;95006.84;5045244;28;20297;-70
2024/01/12 08:08:36;;;;;;;18.27;10.83;;;;;;;-1.90;46.89;94998.16;5050848;28;20229;-72
2024/01/12 08:11:02;;;;;;;17.10;10.67;;;;;;;-1.79;47.25;94990.72;5050482;28;20185;-70
2024/01/12 08:13:27;;;;;;;17.53;11.20;;;;;;;-1.65;47.00;95004.66;5049737;28;20209;-73
2024/01/12 08:15:53;;;;;;;16.87;10.70;;;;;;;-1.67;46.86;94994.41;5051445;28;20236;-71
2024/01/12 08:18:22;;;;;;;19.50;11.60;;;;;;;-1.65;47.47;95004.66;5050588;28;20229;-73
2024/01/12 08:20:48;;;;;;;17.30;10.60;;;;;;;-1.69;47.88;95003.97;5054866;28;20233;-72
2024/01/12 08:23:14;;;;;;;19.07;10.97;;;;;;;-1.61;47.66;95017.28;5049035;28;20194;-73
2024/01/12 08:25:40;;;;;;;21.07;12.57;;;;;;;-1.47;47.51;95016.63;5067544;28;20188;-74
2024/01/12 08:28:05;;;;;;;20.07;11.97;;;;;;;-1.79;47.85;95020.84;5051174;28;20221;-71
2024/01/12 08:30:33;;;;;;;19.50;12.00;;;;;;;-1.53;47.86;95019.47;5063362;28;20221;-74
2024/01/12 08:32:59;;;;;;;21.63;12.03;;;;;;;-1.69;48.72;95034.06;5051971;28;20215;-75
2024/01/12 08:35:26;;;;;;;22.47;13.50;;;;;;;-1.90;49.54;95023.91;5050374;28;20213;-77
2024/01/12 08:37:51;;;;;;;18.87;12.50;;;;;;;-1.67;49.29;95038.25;5052130;28;20267;-76
2024/01/12 08:40:17;;;;;;;20.67;13.00;;;;;;;-1.73;49.87;95024.84;5051668;28;20229;-74
2024/01/12 08:42:42;;;;;;;24.17;14.53;;;;;;;-1.58;49.39;95036.94;5051567;28;20324;-71
2024/01/12 08:45:08;;;;;;;24.83;14.63;;;;;;;-1.57;49.67;95033.47;5050815;28;20221;-76
2024/01/12 08:47:34;;;;;;;29.13;15.13;;;;;;;-1.68;50.13;95034.00;5051797;28;20256;-75
2024/01/12 08:49:59;;;;;;;24.30;14.70;;;;;;;-1.82;50.71;95036.44;5051965;28;20193;-75
2024/01/12 08:52:25;;;;;;;27.07;14.77;;;;;;;-1.78;51.08;95023.31;5050633;28;20232;-82
2024/01/12 08:54:50;;;;;;;24.90;15.53;;;;;;;-1.53;50.67;95022.06;5051759;28;20232;-77
2024/01/12 08:57:16;;;;;;;24.80;15.13;;;;;;;-1.57;50.88;95031.72;5052077;28;20255;-74
2024/01/12 08:59:41;;;;;;;20.37;13.63;;;;;;;-1.51;50.90;95040.88;5048966;28;20225;-74
2024/01/12 09:02:07;;;;;;;27.03;15.37;;;;;;;-1.69;52.09;95041.81;5051432;28;20205;-82
2024/01/12 09:04:34;;;;;;;24.07;15.90;;;;;;;-1.63;52.06;95042.34;5066810;28;20308;-77
2024/01/12 09:07:00;;;;;;;23.13;14.33;;;;;;;-1.35;51.24;95036.59;5051357;28;20286;-76
2024/01/12 09:09:25;;;;;;;24.00;15.60;;;;;;;-1.21;51.16;95033.28;5048662;28;20244;-77
2024/01/12 09:11:51;;;;;;;26.77;14.63;;;;;;;-1.09;51.02;95042.16;5046088;28;20210;-73
2024/01/12 09:14:17;;;;;;;25.10;15.50;;;;;;;-1.06;50.92;95049.72;5051240;28;20185;-72
2024/01/12 09:16:42;;;;;;;24.13;14.90;;;;;;;-1.12;51.37;95044.91;5069597;28;20184;-74
2024/01/12 09:19:08;;;;;;;26.17;16.53;;;;;;;-1.06;51.09;95047.16;5049964;28;20226;-74
2024/01/12 09:21:33;;;;;;;24.47;15.33;;;;;;;-0.86;50.16;95048.66;5051220;28;20231;-78
2024/01/12 09:23:59;;;;;;;26.10;15.67;;;;;;;-1.24;51.06;95058.44;5051087;28;20233;-73
2024/01/12 09:26:24;;;;;;;26.00;16.03;;;;;;;-1.32;51.62;95056.25;5050744;28;20232;-72
2024/01/12 09:28:50;;;;;;;25.27;15.07;;;;;;;-1.43;51.88;95046.47;5067935;28;20223;-74
2024/01/12 09:31:15;;;;;;;27.77;16.67;;;;;;;-1.43;52.19;95059.38;5050620;28;20240;-76
2024/01/12 09:33:41;;;;;;;25.40;15.80;;;;;;;-1.56;52.29;95032.53;5045705;28;20259;-74
2024/01/12 09:36:07;;;;;;;24.67;15.10;;;;;;;-1.22;51.50;95033.38;5054509;28;20213;-76
2024/01/12 09:38:32;;;;;;;30.90;18.23;;;;;;;-1.25;51.67;95051.59;5052295;28;20228;-74
2024/01/12 09:40:59;;;;;;;27.77;15.17;;;;;;;-1.40;52.50;95023.09;5055526;28;20181;-76
2024/01/12 09:43:28;;;;;;;22.70;15.47;;;;;;;-1.55;52.38;95049.69;5048697;28;20217;-75
2024/01/12 09:46:00;;;;;;;23.67;14.67;;;;;;;-1.63;52.87;95019.16;5051239;28;20218;-74
2024/01/12 09:48:27;;;;;;;24.50;14.43;;;;;;;-1.57;53.17;95047.19;5046058;28;20225;-75
2024/01/12 09:50:55;;;;;;;24.23;14.93;;;;;;;-1.33;52.55;95037.34;5054134;28;20220;-75
2024/01/12 09:53:21;;;;;;;23.97;14.80;;;;;;;-1.23;53.34;95034.28;5041737;28;20209;-70
2024/01/12 09:55:46;;;;;;;27.03;16.07;;;;;;;-1.29;52.32;95029.44;5052847;28;20198;-77
2024/01/12 09:58:13;;;;;;;24.80;15.40;;;;;;;-1.16;52.00;95046.78;5049602;28;20257;-75
2024/01/12 10:00:41;;;;;;;25.93;15.07;;;;;;;-0.88;51.75;95032.44;5054049;28;20251;-75
2024/01/12 10:03:07;;;;;;;25.00;15.77;;;;;;;-0.79;51.35;95039.66;5052011;28;20217;-76
2024/01/12 10:05:36;;;;;;;27.33;16.10;;;;;;;-0.82;51.58;95036.44;5069766;28;20252;-73
2024/01/12 10:08:01;;;;;;;26.57;16.27;;;;;;;-0.71;51.10;95024.59;5053605;28;20177;-84
2024/01/12 10:10:26;;;;;;;26.37;16.40;;;;;;;-0.52;50.79;95042.50;5053052;28;20225;-77
2024/01/12 10:12:52;;;;;;;26.73;16.47;;;;;;;-0.73;51.28;95041.91;5053375;28;20312;-75
2024/01/12 10:15:18;;;;;;;27.13;16.17;;;;;;;-0.68;51.13;95031.34;5054733;28;20237;-76
2024/01/12 10:17:43;;;;;;;27.90;15.30;;;;;;;-0.82;51.60;95026.94;5048734;28;20221;-76
2024/01/12 10:20:09;;;;;;;24.53;16.03;;;;;;;-0.40;51.06;95038.41;5068643;28;20265;-72
2024/01/12 10:22:35;;;;;;;27.27;16.70;;;;;;;-0.34;50.89;95040.66;5051348;28;20267;-72
2024/01/12 10:25:03;;;;;;;26.47;17.40;;;;;;;-0.17;50.61;95026.78;5053116;28;20263;-73
2024/01/12 10:27:29;;;;;;;26.77;15.23;;;;;;;0.13;49.49;95037.13;5067616;28;20225;-74
2024/01/12 10:29:56;;;;;;;23.77;16.53;;;;;;;0.11;49.39;95033.81;5047976;28;20316;-73
2024/01/12 10:32:22;;;;;;;28.83;17.07;;;;;;;-0.03;50.14;95031.16;5051252;28;20216;-73
2024/01/12 10:34:48;;;;;;;26.20;16.10;;;;;;;0.23;49.56;95037.44;5071163;28;20182;-75
2024/01/12 10:37:18;;;;;;;25.47;16.50;;;;;;;0.57;48.74;95032.88;5050834;28;20603;-73
2024/01/12 10:39:45;;;;;;;25.53;17.40;;;;;;;0.41;48.73;95022.59;5065042;28;20257;-73
2024/01/12 10:42:12;;;;;;;27.73;16.77;;;;;;;0.50;48.81;95032.38;5049262;28;20222;-74
2024/01/12 10:44:42;;;;;;;29.67;18.03;;;;;;;0.31;49.37;95037.00;5050744;28;20221;-74
2024/01/12 10:47:20;;;;;;;24.63;15.83;;;;;;;0.13;49.35;95044.03;5052291;28;20194;-74
2024/01/12 10:49:49;;;;;;;26.63;16.77;;;;;;;0.20;49.01;95030.69;5069065;28;20217;-74
2024/01/12 10:52:40;;;;;;;25.37;15.90;;;;;;;0.53;48.62;95044.31;5049804;28;20271;-73
2024/01/12 10:55:10;;;;;;;22.67;15.63;;;;;;;0.34;49.01;95039.38;5070132;28;20294;-77
2024/01/12 10:57:37;;;;;;;25.80;16.27;;;;;;;0.16;49.36;95031.78;5051960;28;20241;-73
2024/01/12 11:00:05;;;;;;;24.73;16.60;;;;;;;-0.01;49.75;95027.56;5052537;28;20225;-74
2024/01/12 11:02:31;;;;;;;29.30;17.97;;;;;;;0.02;49.44;95043.84;5052271;28;20225;-72
2024/01/12 11:04:59;;;;;;;26.43;17.90;;;;;;;-0.04;49.54;95038.09;5052466;28;20276;-68
2024/01/12 11:07:26;;;;;;;26.70;17.80;;;;;;;-0.02;50.26;95036.25;5052563;28;20308;-80
2024/01/12 11:09:51;;;;;;;25.40;16.27;;;;;;;0.18;49.98;95042.03;5053696;28;20214;-69
2024/01/12 11:12:39;;;;;;;24.90;17.07;;;;;;;0.25;49.40;95051.09;5051184;28;20244;-71